Weather at Anisakan Airport

Public forecast

Using degrees Celsius for public forecast. Weather courtesy of forecast.io.

Closest aviation weather report (METAR) to Anisakan Airport

Closest report is Mandalay International Airport, 28.3 nm (52.4 km) WSW. Retrieved 2020/09/19 10:30 UTC (33 minutes ago):

VYMD 191030Z 36006KT 7000 BKN020 FEW025CB BKN100 37/23 Q0996

Closest aviation forecast (TAF) to Anisakan Airport

Closest forecast is Mandalay International Airport, 28.3 nm (52.4 km) WSW. Retrieved 2020/09/19 06:00 UTC (5 hours ago):

TAF VYMD 190500Z 1906/2006 32007KT 7000 BKN020 FEW025CB TEMPO 1906/1912 34008KT 5000 -TSRA BKN018 FEW025CB BKN100